createdAt,value
2018-08-23T00:00:45.156Z,65.40
2018-08-23T00:03:48.229Z,66.20
2018-08-23T00:06:57.481Z,67.10
2018-08-23T00:10:02.506Z,67.30
2018-08-23T00:13:06.693Z,67.80
2018-08-23T00:16:09.765Z,67.80
2018-08-23T00:19:13.070Z,68.10
2018-08-23T00:22:26.250Z,68.30
2018-08-23T00:25:29.305Z,68.60
2018-08-23T00:28:32.390Z,68.80
2018-08-23T00:31:38.692Z,69.60
2018-08-23T00:34:41.781Z,70.20
2018-08-23T00:37:44.856Z,71.40
2018-08-23T00:40:47.909Z,72.20
2018-08-23T00:43:51.049Z,73.40
2018-08-23T00:46:54.670Z,73.90
2018-08-23T00:49:57.865Z,74.60
2018-08-23T00:53:00.957Z,75.30
2018-08-23T00:56:21.540Z,75.00
2018-08-23T00:59:24.600Z,75.90
2018-08-23T01:02:27.671Z,76.20
2018-08-23T01:05:38.910Z,76.60
2018-08-23T01:08:41.987Z,76.90
2018-08-23T01:11:45.781Z,77.40
2018-08-23T01:14:50.849Z,78.10
2018-08-23T01:18:08.897Z,78.20
2018-08-23T01:21:12.184Z,78.60
2018-08-23T01:24:15.257Z,79.10
2018-08-23T01:27:24.572Z,79.20
2018-08-23T01:30:27.645Z,79.30
2018-08-23T01:33:30.742Z,79.00
2018-08-23T01:36:34.203Z,79.10
2018-08-23T01:39:37.299Z,79.30
2018-08-23T01:42:41.417Z,79.50
2018-08-23T01:45:44.470Z,79.70
2018-08-23T01:48:53.031Z,80.00
2018-08-23T01:51:56.125Z,80.20
2018-08-23T01:54:59.217Z,80.60
2018-08-23T01:58:02.310Z,80.50
2018-08-23T02:01:11.318Z,81.00
2018-08-23T02:04:14.555Z,80.90
2018-08-23T02:07:17.808Z,81.00
2018-08-23T02:10:21.104Z,81.50
2018-08-23T02:13:28.483Z,82.10
2018-08-23T02:16:43.160Z,82.50
2018-08-23T02:19:48.805Z,82.90
2018-08-23T02:22:52.573Z,83.60
2018-08-23T02:25:55.853Z,83.80
2018-08-23T02:28:59.138Z,84.30
2018-08-23T02:32:03.033Z,84.60
2018-08-23T02:35:06.426Z,85.10
2018-08-23T02:38:09.750Z,85.60
2018-08-23T02:41:13.016Z,85.90
2018-08-23T02:44:16.322Z,86.30
2018-08-23T02:47:19.602Z,86.40
2018-08-23T02:50:22.919Z,86.70
2018-08-23T02:53:38.603Z,86.40
2018-08-23T02:56:55.160Z,86.50
2018-08-23T02:59:58.495Z,86.60
2018-08-23T03:03:01.704Z,87.00
2018-08-23T03:06:05.012Z,87.40
2018-08-23T03:09:08.777Z,87.60
2018-08-23T03:12:20.335Z,88.20
2018-08-23T03:15:25.294Z,88.40
2018-08-23T03:18:28.688Z,88.40
2018-08-23T03:21:31.919Z,88.90
2018-08-23T03:24:35.254Z,89.20
2018-08-23T03:27:42.458Z,89.30
2018-08-23T03:30:50.054Z,89.90
2018-08-23T03:33:53.378Z,90.00
2018-08-23T03:36:56.880Z,90.10
2018-08-23T03:40:00.175Z,90.40
2018-08-23T03:43:03.430Z,90.30
2018-08-23T03:46:06.690Z,90.00
2018-08-23T03:49:09.974Z,89.90
2018-08-23T03:52:15.079Z,90.00
2018-08-23T03:55:19.595Z,90.30
2018-08-23T03:58:22.775Z,90.00
2018-08-23T04:01:26.087Z,89.70
2018-08-23T04:04:29.520Z,89.50
2018-08-23T04:07:32.962Z,90.10
2018-08-23T04:10:36.188Z,90.10
2018-08-23T04:13:39.390Z,90.20
2018-08-23T04:16:42.731Z,90.50
2018-08-23T04:19:49.407Z,90.60
2018-08-23T04:22:52.708Z,90.70
2018-08-23T04:25:55.962Z,90.90
2018-08-23T04:28:59.296Z,91.20
2018-08-23T04:32:04.094Z,91.30
2018-08-23T04:35:18.441Z,91.00
2018-08-23T04:38:21.737Z,90.80
2018-08-23T04:41:25.017Z,90.70
2018-08-23T04:44:29.416Z,90.90
2018-08-23T04:47:32.762Z,90.80
2018-08-23T04:50:36.985Z,90.80
2018-08-23T04:53:40.386Z,90.80
2018-08-23T04:56:43.695Z,90.70
2018-08-23T04:59:47.012Z,90.80
2018-08-23T05:02:50.512Z,90.90
2018-08-23T05:05:53.786Z,90.50
2018-08-23T05:08:57.053Z,90.40
2018-08-23T05:12:00.258Z,90.40
2018-08-23T05:15:03.567Z,90.10
2018-08-23T05:18:07.303Z,90.00
2018-08-23T05:21:10.553Z,89.40
2018-08-23T05:24:14.506Z,88.90
2018-08-23T05:27:17.870Z,88.60
2018-08-23T05:30:21.213Z,88.30
2018-08-23T05:33:24.571Z,88.20
2018-08-23T05:36:27.955Z,87.20
2018-08-23T05:39:43.880Z,86.70
2018-08-23T05:42:53.313Z,86.00
2018-08-23T05:45:57.312Z,84.50
2018-08-23T05:49:00.583Z,79.60
2018-08-23T05:52:03.879Z,73.60
2018-08-23T05:55:07.195Z,67.50
2018-08-23T05:58:15.021Z,61.00
2018-08-23T06:01:18.234Z,56.40
2018-08-23T06:04:33.038Z,53.10
2018-08-23T06:07:36.205Z,50.90
2018-08-23T06:10:39.562Z,49.00
2018-08-23T06:13:42.826Z,47.20
2018-08-23T06:16:55.164Z,45.00
2018-08-23T06:19:58.339Z,43.70
2018-08-23T06:23:01.515Z,42.40
2018-08-23T06:26:04.710Z,41.20
2018-08-23T06:29:08.717Z,41.40
2018-08-23T06:32:11.889Z,40.00
2018-08-23T06:35:15.109Z,39.00
2018-08-23T06:41:59.406Z,38.20
2018-08-23T06:45:03.110Z,37.90
2018-08-23T06:48:06.388Z,36.80
2018-08-23T06:51:10.649Z,36.10
2018-08-23T06:54:13.786Z,35.60
2018-08-23T06:57:16.936Z,35.20
2018-08-23T07:00:25.110Z,35.00
2018-08-23T07:03:28.299Z,35.20
2018-08-23T07:06:31.579Z,35.80
2018-08-23T07:09:40.103Z,36.40
2018-08-23T07:12:43.334Z,36.30
2018-08-23T07:15:50.818Z,36.20
2018-08-23T07:18:54.136Z,36.00
2018-08-23T07:21:58.908Z,35.40
2018-08-23T07:25:02.471Z,35.40
2018-08-23T07:28:05.773Z,36.00
2018-08-23T07:31:08.965Z,36.50
2018-08-23T07:34:12.234Z,36.50
2018-08-23T07:37:18.122Z,36.70
2018-08-23T07:40:22.790Z,36.40
2018-08-23T07:43:26.117Z,35.10
2018-08-23T07:46:29.254Z,33.80
2018-08-23T07:53:00.948Z,32.70
2018-08-23T07:56:15.701Z,32.00
2018-08-23T07:59:19.001Z,31.90
2018-08-23T08:02:22.609Z,32.30
2018-08-23T08:05:31.044Z,33.40
2018-08-23T08:08:34.224Z,33.30
2018-08-23T08:11:58.226Z,33.90
2018-08-23T08:15:01.576Z,34.60
2018-08-23T08:18:07.330Z,34.30
2018-08-23T08:21:15.570Z,33.90
2018-08-23T08:24:18.749Z,33.90
2018-08-23T08:27:22.072Z,33.70
2018-08-23T08:30:57.499Z,34.00
2018-08-23T08:34:00.736Z,34.00
2018-08-23T08:37:03.980Z,35.40
2018-08-23T08:40:11.215Z,35.10
2018-08-23T08:43:14.423Z,35.20
2018-08-23T08:46:17.598Z,34.90
2018-08-23T08:49:20.790Z,35.30
2018-08-23T08:52:24.010Z,36.00
2018-08-23T08:55:27.186Z,36.20
2018-08-23T08:58:30.410Z,36.50
2018-08-23T09:01:33.676Z,36.30
2018-08-23T09:04:37.598Z,35.70
2018-08-23T09:07:43.640Z,35.80
2018-08-23T09:11:00.110Z,37.00
2018-08-23T09:14:03.349Z,36.50
2018-08-23T09:17:23.685Z,37.90
2018-08-23T09:20:26.926Z,37.80
2018-08-23T09:23:30.192Z,38.80
2018-08-23T09:26:38.950Z,39.80
2018-08-23T09:29:42.184Z,40.90
2018-08-23T09:32:45.377Z,41.90
2018-08-23T09:35:48.562Z,42.60
2018-08-23T09:38:51.838Z,43.50
2018-08-23T09:41:55.182Z,45.10
2018-08-23T09:45:07.498Z,45.20
2018-08-23T09:48:10.771Z,46.00
2018-08-23T09:51:19.406Z,45.70
2018-08-23T09:54:28.246Z,46.40
2018-08-23T09:57:31.474Z,45.10
2018-08-23T10:00:40.121Z,45.10
2018-08-23T10:03:48.951Z,45.30
2018-08-23T10:07:01.384Z,44.40
2018-08-23T10:10:10.087Z,45.80
2018-08-23T10:13:36.063Z,47.20
2018-08-23T10:16:44.742Z,47.30
2018-08-23T10:19:53.486Z,47.50
2018-08-23T10:23:02.601Z,47.60
2018-08-23T10:26:16.038Z,52.00
2018-08-23T10:29:19.354Z,50.70
2018-08-23T10:32:22.692Z,47.90
2018-08-23T10:35:25.850Z,49.40
2018-08-23T10:38:29.275Z,52.00
2018-08-23T10:41:32.550Z,48.90
2018-08-23T10:44:35.903Z,48.60
2018-08-23T10:47:44.454Z,48.50
2018-08-23T10:50:48.984Z,48.80
2018-08-23T10:53:52.425Z,49.40
2018-08-23T10:56:55.629Z,48.90
2018-08-23T10:59:59.019Z,48.40
2018-08-23T11:03:02.326Z,49.30
2018-08-23T11:06:05.786Z,50.10
2018-08-23T11:09:14.594Z,49.70
2018-08-23T11:12:23.050Z,50.10
2018-08-23T11:15:26.291Z,54.70
2018-08-23T11:18:34.832Z,50.00
2018-08-23T11:21:38.222Z,49.70
2018-08-23T11:24:50.998Z,49.40
2018-08-23T11:27:56.024Z,49.20
2018-08-23T11:31:02.374Z,49.50
2018-08-23T11:34:05.658Z,49.30
2018-08-23T11:37:08.977Z,48.50
2018-08-23T11:40:12.210Z,48.80
2018-08-23T11:43:15.575Z,48.80
2018-08-23T11:46:20.297Z,47.30
2018-08-23T11:49:23.495Z,46.30
2018-08-23T11:52:26.715Z,46.20
2018-08-23T11:55:41.282Z,46.10
2018-08-23T11:58:44.470Z,45.80
2018-08-23T12:01:47.759Z,44.90
2018-08-23T12:04:51.120Z,45.30
2018-08-23T12:07:55.060Z,45.60
2018-08-23T12:10:58.279Z,45.50
2018-08-23T12:14:01.498Z,45.10
2018-08-23T12:17:05.084Z,44.70
2018-08-23T12:20:09.454Z,44.00
2018-08-23T12:23:12.671Z,44.10
2018-08-23T12:26:16.018Z,44.70
2018-08-23T12:29:19.205Z,45.70
2018-08-23T12:32:25.991Z,46.60
2018-08-23T12:35:29.583Z,45.10
2018-08-23T12:38:38.393Z,45.80
2018-08-23T12:41:47.343Z,45.00
2018-08-23T12:44:52.517Z,43.80
2018-08-23T12:47:55.782Z,42.80
2018-08-23T12:50:59.182Z,44.40
2018-08-23T12:54:02.455Z,43.50
2018-08-23T12:57:05.662Z,43.80
2018-08-23T13:00:08.822Z,43.50
2018-08-23T13:03:12.160Z,44.50
2018-08-23T13:06:15.418Z,44.90
2018-08-23T13:09:18.668Z,49.50
2018-08-23T13:12:22.015Z,45.40
2018-08-23T13:15:25.290Z,45.10
2018-08-23T13:18:28.585Z,47.50
2018-08-23T13:21:31.848Z,47.10
2018-08-23T13:24:39.426Z,48.00
2018-08-23T13:27:42.780Z,51.70
2018-08-23T13:30:45.965Z,49.60
2018-08-23T13:33:49.244Z,49.60
2018-08-23T13:36:55.964Z,51.10
2018-08-23T13:39:59.112Z,47.20
2018-08-23T13:43:02.321Z,48.40
2018-08-23T13:46:05.697Z,51.10
2018-08-23T13:49:08.965Z,48.80
2018-08-23T13:52:12.676Z,51.70
2018-08-23T13:55:15.972Z,50.00
2018-08-23T13:58:19.175Z,50.20
2018-08-23T14:01:29.334Z,49.60
2018-08-23T14:04:32.769Z,49.60
2018-08-23T14:07:36.049Z,50.20
2018-08-23T14:10:39.190Z,49.40
2018-08-23T14:13:42.520Z,51.50
2018-08-23T14:16:45.874Z,52.10
2018-08-23T14:19:49.914Z,49.40
2018-08-23T14:22:53.214Z,50.10
2018-08-23T14:25:56.394Z,47.80
2018-08-23T14:28:59.509Z,48.30
2018-08-23T14:32:02.573Z,47.00
2018-08-23T14:35:05.816Z,49.70
2018-08-23T14:38:08.865Z,47.70
2018-08-23T14:41:11.941Z,46.90
2018-08-23T14:44:15.076Z,47.40
2018-08-23T14:48:25.425Z,47.50
2018-08-23T14:51:28.485Z,47.60
2018-08-23T14:54:37.041Z,47.90
2018-08-23T14:57:40.119Z,47.80
2018-08-23T15:00:43.190Z,47.80
2018-08-23T15:03:46.292Z,48.30
2018-08-23T15:06:49.355Z,48.20
2018-08-23T15:09:52.404Z,49.80
2018-08-23T15:12:55.526Z,48.70
2018-08-23T15:16:04.985Z,49.10
2018-08-23T15:19:08.082Z,49.80
2018-08-23T15:22:11.157Z,49.40
2018-08-23T15:25:14.230Z,49.40
2018-08-23T15:28:17.296Z,49.80
2018-08-23T15:31:20.365Z,49.60
2018-08-23T15:34:23.443Z,50.30
2018-08-23T15:37:26.484Z,51.00
2018-08-23T15:40:29.549Z,51.60
2018-08-23T15:43:32.649Z,51.70
2018-08-23T15:46:41.036Z,52.10
2018-08-23T15:49:44.105Z,52.20
2018-08-23T15:52:47.180Z,52.20
2018-08-23T15:55:50.339Z,52.50
2018-08-23T15:58:53.298Z,52.40
2018-08-23T16:01:56.364Z,53.00
2018-08-23T16:05:06.466Z,53.20
2018-08-23T16:08:09.666Z,52.70
2018-08-23T16:11:12.870Z,52.80
2018-08-23T16:14:16.078Z,53.70
2018-08-23T16:17:24.761Z,54.20
2018-08-23T16:20:52.584Z,54.50
2018-08-23T16:23:56.335Z,54.50
2018-08-23T16:27:02.510Z,55.80
2018-08-23T16:30:05.958Z,54.90
2018-08-23T16:33:09.465Z,55.20
2018-08-23T16:36:12.693Z,55.20
2018-08-23T16:39:15.890Z,55.60
2018-08-23T16:42:19.182Z,55.90
2018-08-23T16:45:22.482Z,56.20
2018-08-23T16:48:26.287Z,56.20
2018-08-23T16:51:29.594Z,56.10
2018-08-23T16:54:32.882Z,56.60
2018-08-23T16:57:36.210Z,56.10
2018-08-23T17:00:39.410Z,56.00
2018-08-23T17:03:42.670Z,56.70
2018-08-23T17:06:45.982Z,56.10
2018-08-23T17:09:49.227Z,56.40
2018-08-23T17:12:52.621Z,56.50
2018-08-23T17:16:01.214Z,56.70
2018-08-23T17:19:04.546Z,56.90
2018-08-23T17:22:07.891Z,56.90
2018-08-23T17:25:11.262Z,56.80
2018-08-23T17:28:14.478Z,56.80
2018-08-23T17:31:17.734Z,57.40
2018-08-23T17:34:20.971Z,56.80
2018-08-23T17:37:24.746Z,56.70
2018-08-23T17:40:28.003Z,57.00
2018-08-23T17:43:31.238Z,57.30
2018-08-23T17:46:34.399Z,57.40
2018-08-23T17:49:37.623Z,57.70
2018-08-23T17:52:40.905Z,58.00
2018-08-23T17:55:44.230Z,58.60
2018-08-23T17:58:47.479Z,58.50
2018-08-23T18:01:50.821Z,58.60
2018-08-23T18:04:54.422Z,58.90
2018-08-23T18:07:57.950Z,59.20
2018-08-23T18:11:01.193Z,59.70
2018-08-23T18:14:04.483Z,60.20
2018-08-23T18:17:07.821Z,60.50
2018-08-23T18:20:11.128Z,60.80
2018-08-23T18:23:14.485Z,61.40
2018-08-23T18:26:17.876Z,61.40
2018-08-23T18:29:21.137Z,61.90
2018-08-23T18:32:38.551Z,62.30
2018-08-23T18:35:41.824Z,62.70
2018-08-23T18:38:45.251Z,62.60
2018-08-23T18:41:48.534Z,62.40
2018-08-23T18:44:51.994Z,62.90
2018-08-23T18:47:55.266Z,62.70
2018-08-23T18:50:58.617Z,62.80
2018-08-23T18:54:02.720Z,63.20
2018-08-23T18:57:06.228Z,63.40
2018-08-23T19:00:09.808Z,63.80
2018-08-23T19:03:13.047Z,63.70
2018-08-23T19:06:16.318Z,63.60
2018-08-23T19:09:19.542Z,63.90
2018-08-23T19:12:22.766Z,63.90
2018-08-23T19:15:31.542Z,64.00
2018-08-23T19:18:34.922Z,64.10
2018-08-23T19:21:38.237Z,64.10
2018-08-23T19:24:41.526Z,64.30
2018-08-23T19:27:44.854Z,64.30
2018-08-23T19:30:48.139Z,64.20
2018-08-23T19:33:51.379Z,64.20
2018-08-23T19:36:54.878Z,64.30
2018-08-23T19:39:58.134Z,64.20
2018-08-23T19:43:02.253Z,64.30
2018-08-23T19:46:10.986Z,64.30
2018-08-23T19:49:19.702Z,65.40
2018-08-23T19:52:23.084Z,64.50
2018-08-23T19:55:26.419Z,64.90
2018-08-23T19:58:29.757Z,65.20
2018-08-23T20:01:33.024Z,65.50
2018-08-23T20:04:36.353Z,65.70
2018-08-23T20:07:39.595Z,66.10
2018-08-23T20:10:43.070Z,66.50
2018-08-23T20:13:46.358Z,66.70
2018-08-23T20:16:49.703Z,66.50
2018-08-23T20:19:53.170Z,66.70
2018-08-23T20:22:56.469Z,68.00
2018-08-23T20:25:59.778Z,66.90
2018-08-23T20:29:03.026Z,67.50
2018-08-23T20:32:06.211Z,67.40
2018-08-23T20:35:09.415Z,67.90
2018-08-23T20:38:12.654Z,68.30
2018-08-23T20:41:15.994Z,68.60
2018-08-23T20:44:19.290Z,68.90
2018-08-23T20:47:22.580Z,68.70
2018-08-23T20:50:25.889Z,68.50
2018-08-23T20:53:29.174Z,68.70
2018-08-23T20:56:32.494Z,68.70
2018-08-23T20:59:35.876Z,69.10
2018-08-23T21:02:39.142Z,69.60
2018-08-23T21:05:42.486Z,69.80
2018-08-23T21:08:45.798Z,70.00
2018-08-23T21:11:49.158Z,70.10
2018-08-23T21:14:52.578Z,70.20
2018-08-23T21:17:55.954Z,70.20
2018-08-23T21:20:59.122Z,70.50
2018-08-23T21:24:02.480Z,70.70
2018-08-23T21:27:06.147Z,71.20
2018-08-23T21:30:10.083Z,71.00
2018-08-23T21:33:13.416Z,71.60
2018-08-23T21:36:16.682Z,71.80
2018-08-23T21:39:20.068Z,72.10
2018-08-23T21:42:23.467Z,72.10
2018-08-23T21:45:26.690Z,72.50
2018-08-23T21:48:29.951Z,72.70
2018-08-23T21:51:33.198Z,72.40
2018-08-23T21:54:36.580Z,73.30
2018-08-23T21:57:40.162Z,73.50
2018-08-23T22:01:17.150Z,73.70
2018-08-23T22:04:20.374Z,74.00
2018-08-23T22:07:23.569Z,74.30
2018-08-23T22:10:26.774Z,74.50
2018-08-23T22:13:30.430Z,75.70
2018-08-23T22:16:33.662Z,75.10
2018-08-23T22:19:37.013Z,75.70
2018-08-23T22:22:40.286Z,76.40
2018-08-23T22:25:43.464Z,76.50
2018-08-23T22:28:46.707Z,76.50
2018-08-23T22:31:50.042Z,77.20
2018-08-23T22:34:53.350Z,77.70
2018-08-23T22:37:56.605Z,79.10
2018-08-23T22:40:59.773Z,78.40
2018-08-23T22:44:03.119Z,78.70
2018-08-23T22:47:06.433Z,78.80
2018-08-23T22:50:09.830Z,79.10
2018-08-23T22:53:13.194Z,79.70
2018-08-23T22:56:26.170Z,80.00
2018-08-23T22:59:29.375Z,80.10
2018-08-23T23:02:37.770Z,80.50
2018-08-23T23:05:41.190Z,80.80
2018-08-23T23:08:44.469Z,81.20
2018-08-23T23:11:47.752Z,81.40
2018-08-23T23:14:51.046Z,82.00
2018-08-23T23:17:54.594Z,82.00
2018-08-23T23:20:57.910Z,82.80
2018-08-23T23:24:01.702Z,82.70
2018-08-23T23:27:05.015Z,82.60
2018-08-23T23:30:08.319Z,82.70
2018-08-23T23:33:11.586Z,82.60
2018-08-23T23:36:15.199Z,82.60
2018-08-23T23:39:18.514Z,82.80
2018-08-23T23:42:21.839Z,82.80
2018-08-23T23:45:25.102Z,83.30
2018-08-23T23:48:28.435Z,84.60
2018-08-23T23:51:31.708Z,84.30
2018-08-23T23:54:35.006Z,84.60
2018-08-23T23:57:38.294Z,85.60
